createdAt,value
2017-09-11T08:55:12.435Z,18.31
2017-09-11T08:57:49.951Z,18.08
2017-09-11T09:00:27.843Z,18.30
2017-09-11T09:02:58.562Z,18.25
2017-09-11T09:05:27.676Z,17.88
2017-09-11T09:07:57.061Z,17.87
2017-09-11T09:10:25.909Z,18.08
2017-09-11T09:12:55.041Z,17.90
2017-09-11T09:15:25.027Z,17.76
2017-09-11T09:22:25.362Z,17.26
2017-09-11T09:24:54.632Z,17.34
2017-09-11T09:27:23.156Z,17.33
2017-09-11T09:29:54.171Z,17.43
2017-09-11T09:32:23.285Z,17.46
2017-09-11T09:34:53.014Z,17.47
2017-09-11T09:37:22.615Z,17.45
2017-09-11T09:39:52.025Z,17.59
2017-09-11T09:42:21.588Z,17.51
2017-09-11T09:44:50.899Z,17.58
2017-09-11T09:47:20.341Z,17.49
2017-09-11T09:49:50.179Z,17.65
2017-09-11T09:52:19.330Z,17.69
2017-09-11T09:54:49.009Z,17.70
2017-09-11T09:57:18.342Z,17.69
2017-09-11T09:59:48.110Z,17.75
2017-09-11T10:02:17.379Z,17.73
2017-09-11T10:04:47.139Z,17.69
2017-09-11T10:07:16.891Z,17.53
2017-09-11T10:09:46.755Z,17.72
2017-09-11T11:09:51.084Z,21.91
2017-09-11T11:18:04.875Z,21.49
2017-09-11T11:20:44.590Z,21.44
2017-09-11T11:37:21.581Z,20.82
2017-09-11T11:39:59.440Z,20.20
2017-09-11T11:42:28.870Z,20.03
2017-09-11T11:44:59.544Z,20.16
2017-09-11T11:47:30.151Z,20.16
2017-09-11T11:49:59.365Z,19.43
2017-09-11T11:52:28.914Z,19.69
2017-09-11T11:54:58.282Z,19.59
2017-09-11T11:57:27.798Z,19.63
2017-09-11T11:59:57.667Z,19.88
2017-09-11T12:02:27.422Z,19.60
2017-09-11T12:04:57.774Z,19.47
2017-09-11T12:07:27.374Z,19.27
2017-09-11T12:09:56.923Z,19.36
2017-09-11T12:12:26.238Z,19.43
2017-09-11T12:14:55.470Z,19.47
2017-09-11T12:17:27.081Z,19.31
2017-09-11T12:25:44.376Z,18.96
2017-09-11T12:28:14.154Z,17.64
2017-09-11T12:30:44.598Z,16.89
2017-09-11T12:33:14.872Z,15.96
2017-09-11T12:35:44.790Z,15.74
2017-09-11T12:38:15.051Z,15.76
2017-09-11T12:40:44.891Z,15.64
2017-09-11T12:43:14.246Z,15.85
2017-09-11T12:45:44.627Z,15.96
2017-09-11T12:48:14.097Z,16.30
2017-09-11T12:50:43.411Z,16.83
2017-09-11T12:53:13.227Z,16.77
2017-09-11T12:55:42.638Z,17.88
2017-09-11T12:58:11.832Z,19.49
2017-09-11T13:00:40.841Z,20.07
2017-09-11T13:03:10.437Z,20.13
2017-09-11T13:05:40.711Z,20.52
2017-09-11T13:08:10.112Z,20.38
2017-09-11T13:10:39.556Z,20.71
2017-09-11T13:13:08.796Z,21.04
2017-09-11T13:15:38.632Z,20.81
2017-09-11T13:18:07.822Z,20.36
2017-09-11T13:20:37.143Z,20.21
2017-09-11T13:23:06.296Z,19.28
2017-09-11T13:25:35.749Z,18.97
2017-09-11T13:28:05.212Z,19.18
2017-09-11T13:30:32.715Z,19.51
2017-09-11T13:33:00.868Z,19.26
2017-09-11T13:35:31.484Z,19.28
2017-09-11T13:38:01.378Z,19.66
2017-09-11T13:40:31.758Z,19.63
2017-09-11T13:43:05.583Z,19.33
2017-09-11T13:45:35.399Z,19.30
2017-09-11T13:48:04.680Z,19.31
2017-09-11T13:50:34.305Z,19.49
2017-09-11T13:53:01.841Z,19.23
2017-09-11T13:55:30.551Z,19.40
2017-09-11T13:57:58.059Z,19.68
2017-09-11T14:00:29.005Z,19.83
2017-09-11T14:05:09.414Z,19.60
2017-09-11T14:07:56.507Z,19.95
2017-09-11T14:10:29.122Z,20.25
2017-09-11T14:12:56.665Z,20.40
2017-09-11T14:15:24.279Z,20.57
2017-09-11T14:17:52.377Z,20.35
2017-09-11T14:20:21.214Z,19.25
2017-09-11T14:22:48.707Z,19.26
2017-09-11T14:25:16.487Z,19.07
2017-09-11T14:27:44.773Z,18.54
2017-09-11T14:30:15.506Z,18.35
2017-09-11T14:32:44.133Z,18.25
2017-09-11T14:35:13.752Z,17.99
2017-09-11T14:37:43.748Z,17.89
2017-09-11T14:40:16.662Z,18.02
2017-09-11T14:45:48.828Z,17.87
2017-09-11T14:48:18.129Z,17.83
2017-09-11T14:50:48.657Z,17.95
2017-09-11T14:53:19.278Z,18.03
2017-09-11T14:56:04.891Z,18.07
2017-09-11T14:58:48.926Z,18.32
2017-09-11T15:01:23.455Z,18.82
2017-09-11T15:03:52.965Z,19.16
2017-09-11T15:10:02.422Z,19.14
2017-09-11T15:12:36.316Z,19.05
2017-09-11T15:15:08.104Z,19.14
2017-09-11T15:20:38.537Z,19.21
2017-09-11T15:23:08.003Z,19.17
2017-09-11T15:25:36.635Z,18.93
2017-09-11T15:28:06.495Z,18.85
2017-09-11T15:30:35.918Z,18.77
2017-09-11T15:33:07.800Z,18.69
2017-09-11T15:35:37.159Z,18.78
2017-09-11T15:38:07.925Z,18.74
2017-09-11T15:40:37.739Z,18.63
2017-09-11T15:43:10.862Z,18.52
2017-09-11T15:48:49.089Z,18.35
2017-09-11T15:51:25.700Z,18.05
2017-09-11T15:53:56.631Z,18.06
2017-09-11T15:56:36.256Z,18.13
2017-09-11T15:59:07.589Z,18.01
2017-09-11T16:01:38.523Z,18.14
2017-09-11T16:04:10.504Z,18.10
2017-09-11T16:06:41.107Z,18.07
2017-09-11T16:09:25.980Z,18.04
